sensor_id;sensor_type;location;lat;lon;timestamp;temperature;humidity
19085;DHT22;9675;51.538;6.728;2023-03-14T00:00:52;12.90;99.90
19085;DHT22;9675;51.538;6.728;2023-03-14T00:03:19;13.00;99.90
19085;DHT22;9675;51.538;6.728;2023-03-14T00:05:46;12.90;99.90
19085;DHT22;9675;51.538;6.728;2023-03-14T00:08:13;12.90;99.90
19085;DHT22;9675;51.538;6.728;2023-03-14T00:10:40;12.90;99.90
19085;DHT22;9675;51.538;6.728;2023-03-14T00:13:07;12.90;99.90
19085;DHT22;9675;51.538;6.728;2023-03-14T00:15:36;12.90;99.90
19085;DHT22;9675;51.538;6.728;2023-03-14T00:18:03;12.80;99.90
19085;DHT22;9675;51.538;6.728;2023-03-14T00:20:30;12.90;99.90
19085;DHT22;9675;51.538;6.728;2023-03-14T00:22:57;12.80;99.90
19085;DHT22;9675;51.538;6.728;2023-03-14T00:25:24;12.80;99.90
19085;DHT22;9675;51.538;6.728;2023-03-14T00:27:51;12.90;99.90
19085;DHT22;9675;51.538;6.728;2023-03-14T00:30:18;12.80;99.90
19085;DHT22;9675;51.538;6.728;2023-03-14T00:32:47;12.80;99.90
19085;DHT22;9675;51.538;6.728;2023-03-14T00:35:15;12.80;99.90
19085;DHT22;9675;51.538;6.728;2023-03-14T00:37:42;12.80;99.90
19085;DHT22;9675;51.538;6.728;2023-03-14T00:40:10;12.90;99.90
19085;DHT22;9675;51.538;6.728;2023-03-14T00:42:37;12.80;99.90
19085;DHT22;9675;51.538;6.728;2023-03-14T00:45:05;12.80;99.90
19085;DHT22;9675;51.538;6.728;2023-03-14T00:47:34;12.80;99.90
19085;DHT22;9675;51.538;6.728;2023-03-14T00:50:03;12.70;99.90
19085;DHT22;9675;51.538;6.728;2023-03-14T00:52:30;12.70;99.90
19085;DHT22;9675;51.538;6.728;2023-03-14T00:54:57;12.70;99.90
19085;DHT22;9675;51.538;6.728;2023-03-14T00:57:24;12.70;99.90
19085;DHT22;9675;51.538;6.728;2023-03-14T00:59:51;12.60;99.90
19085;DHT22;9675;51.538;6.728;2023-03-14T01:02:18;12.60;99.90
19085;DHT22;9675;51.538;6.728;2023-03-14T01:04:47;12.60;99.90
19085;DHT22;9675;51.538;6.728;2023-03-14T01:07:16;12.60;99.90
19085;DHT22;9675;51.538;6.728;2023-03-14T01:09:43;12.50;99.90
19085;DHT22;9675;51.538;6.728;2023-03-14T01:12:10;12.50;99.90
19085;DHT22;9675;51.538;6.728;2023-03-14T01:14:37;12.50;99.90
19085;DHT22;9675;51.538;6.728;2023-03-14T01:17:04;12.50;99.90
19085;DHT22;9675;51.538;6.728;2023-03-14T01:19:31;12.40;99.90
19085;DHT22;9675;51.538;6.728;2023-03-14T01:21:58;12.40;99.90
19085;DHT22;9675;51.538;6.728;2023-03-14T01:24:27;12.40;99.90
19085;DHT22;9675;51.538;6.728;2023-03-14T01:26:54;12.40;99.90
19085;DHT22;9675;51.538;6.728;2023-03-14T01:29:21;12.30;99.90
19085;DHT22;9675;51.538;6.728;2023-03-14T01:31:48;12.30;99.90
19085;DHT22;9675;51.538;6.728;2023-03-14T01:34:15;12.30;99.90
19085;DHT22;9675;51.538;6.728;2023-03-14T01:36:42;12.30;99.90
19085;DHT22;9675;51.538;6.728;2023-03-14T01:39:09;12.20;99.90
19085;DHT22;9675;51.538;6.728;2023-03-14T01:41:37;12.20;99.90
19085;DHT22;9675;51.538;6.728;2023-03-14T01:44:04;12.20;99.90
19085;DHT22;9675;51.538;6.728;2023-03-14T01:46:38;12.20;99.90
19085;DHT22;9675;51.538;6.728;2023-03-14T01:49:10;12.10;99.90
19085;DHT22;9675;51.538;6.728;2023-03-14T01:51:49;12.10;99.90
19085;DHT22;9675;51.538;6.728;2023-03-14T01:54:23;12.10;99.90
19085;DHT22;9675;51.538;6.728;2023-03-14T01:56:58;12.10;99.90
19085;DHT22;9675;51.538;6.728;2023-03-14T01:59:31;12.10;99.90
19085;DHT22;9675;51.538;6.728;2023-03-14T02:02:00;12.00;99.90
19085;DHT22;9675;51.538;6.728;2023-03-14T02:04:30;12.00;99.90
19085;DHT22;9675;51.538;6.728;2023-03-14T02:07:05;12.00;99.90
19085;DHT22;9675;51.538;6.728;2023-03-14T02:09:38;11.90;99.90
19085;DHT22;9675;51.538;6.728;2023-03-14T02:12:08;11.90;99.90
19085;DHT22;9675;51.538;6.728;2023-03-14T02:14:37;11.90;99.90
19085;DHT22;9675;51.538;6.728;2023-03-14T02:17:05;11.80;99.90
19085;DHT22;9675;51.538;6.728;2023-03-14T02:19:50;11.80;99.90
19085;DHT22;9675;51.538;6.728;2023-03-14T02:22:26;11.80;99.90
19085;DHT22;9675;51.538;6.728;2023-03-14T02:24:59;11.80;99.90
19085;DHT22;9675;51.538;6.728;2023-03-14T02:27:35;11.80;99.90
19085;DHT22;9675;51.538;6.728;2023-03-14T02:30:05;11.70;99.90
19085;DHT22;9675;51.538;6.728;2023-03-14T02:32:39;11.70;99.90
19085;DHT22;9675;51.538;6.728;2023-03-14T02:35:11;11.70;99.90
19085;DHT22;9675;51.538;6.728;2023-03-14T02:37:42;11.70;99.90
19085;DHT22;9675;51.538;6.728;2023-03-14T02:40:14;11.70;99.90
19085;DHT22;9675;51.538;6.728;2023-03-14T02:42:43;11.70;99.90
19085;DHT22;9675;51.538;6.728;2023-03-14T02:45:43;11.60;99.90
19085;DHT22;9675;51.538;6.728;2023-03-14T02:48:15;11.60;99.90
19085;DHT22;9675;51.538;6.728;2023-03-14T02:50:45;11.60;99.90
19085;DHT22;9675;51.538;6.728;2023-03-14T02:53:18;11.60;99.90
19085;DHT22;9675;51.538;6.728;2023-03-14T02:55:47;11.70;99.90
19085;DHT22;9675;51.538;6.728;2023-03-14T02:58:16;11.60;99.90
19085;DHT22;9675;51.538;6.728;2023-03-14T03:00:44;11.60;99.90
19085;DHT22;9675;51.538;6.728;2023-03-14T03:03:12;11.60;99.90
19085;DHT22;9675;51.538;6.728;2023-03-14T03:05:40;11.60;99.90
19085;DHT22;9675;51.538;6.728;2023-03-14T03:08:08;11.50;99.90
19085;DHT22;9675;51.538;6.728;2023-03-14T03:10:36;11.50;99.90
19085;DHT22;9675;51.538;6.728;2023-03-14T03:13:03;11.60;99.90
19085;DHT22;9675;51.538;6.728;2023-03-14T03:15:31;11.50;99.90
19085;DHT22;9675;51.538;6.728;2023-03-14T03:17:58;11.50;99.90
19085;DHT22;9675;51.538;6.728;2023-03-14T03:20:25;11.50;99.90
19085;DHT22;9675;51.538;6.728;2023-03-14T03:22:52;11.50;99.90
19085;DHT22;9675;51.538;6.728;2023-03-14T03:25:19;11.50;99.90
19085;DHT22;9675;51.538;6.728;2023-03-14T03:27:46;11.50;99.90
19085;DHT22;9675;51.538;6.728;2023-03-14T03:30:14;11.50;99.90
19085;DHT22;9675;51.538;6.728;2023-03-14T03:32:43;11.50;99.90
19085;DHT22;9675;51.538;6.728;2023-03-14T03:35:10;11.50;99.90
19085;DHT22;9675;51.538;6.728;2023-03-14T03:37:38;11.50;99.90
19085;DHT22;9675;51.538;6.728;2023-03-14T03:40:06;11.50;99.90
19085;DHT22;9675;51.538;6.728;2023-03-14T03:42:35;11.50;99.90
19085;DHT22;9675;51.538;6.728;2023-03-14T03:45:03;11.40;99.90
19085;DHT22;9675;51.538;6.728;2023-03-14T03:47:31;11.40;99.90
19085;DHT22;9675;51.538;6.728;2023-03-14T03:49:59;11.40;99.90
19085;DHT22;9675;51.538;6.728;2023-03-14T03:52:26;11.50;99.90
19085;DHT22;9675;51.538;6.728;2023-03-14T03:54:53;11.50;99.90
19085;DHT22;9675;51.538;6.728;2023-03-14T03:57:20;11.40;99.90
19085;DHT22;9675;51.538;6.728;2023-03-14T03:59:47;11.40;99.90
19085;DHT22;9675;51.538;6.728;2023-03-14T04:02:14;11.40;99.90
19085;DHT22;9675;51.538;6.728;2023-03-14T04:04:41;11.40;99.90
19085;DHT22;9675;51.538;6.728;2023-03-14T04:07:10;11.40;99.90
19085;DHT22;9675;51.538;6.728;2023-03-14T04:09:39;11.40;99.90
19085;DHT22;9675;51.538;6.728;2023-03-14T04:12:06;11.40;99.90
19085;DHT22;9675;51.538;6.728;2023-03-14T04:14:33;11.40;99.90
19085;DHT22;9675;51.538;6.728;2023-03-14T04:17:00;11.40;99.90
19085;DHT22;9675;51.538;6.728;2023-03-14T04:19:27;11.40;99.90
19085;DHT22;9675;51.538;6.728;2023-03-14T04:21:54;11.40;99.90
19085;DHT22;9675;51.538;6.728;2023-03-14T04:24:22;11.30;99.90
19085;DHT22;9675;51.538;6.728;2023-03-14T04:26:49;11.40;99.90
19085;DHT22;9675;51.538;6.728;2023-03-14T04:29:16;11.30;99.90
19085;DHT22;9675;51.538;6.728;2023-03-14T04:31:43;11.30;99.90
19085;DHT22;9675;51.538;6.728;2023-03-14T04:34:10;11.30;99.90
19085;DHT22;9675;51.538;6.728;2023-03-14T04:36:37;11.30;99.90
19085;DHT22;9675;51.538;6.728;2023-03-14T04:39:04;11.30;99.90
19085;DHT22;9675;51.538;6.728;2023-03-14T04:41:33;11.30;99.90
19085;DHT22;9675;51.538;6.728;2023-03-14T04:44:00;11.30;99.90
19085;DHT22;9675;51.538;6.728;2023-03-14T04:46:27;11.30;99.90
19085;DHT22;9675;51.538;6.728;2023-03-14T04:48:54;11.30;99.90
19085;DHT22;9675;51.538;6.728;2023-03-14T04:51:22;11.30;99.90
19085;DHT22;9675;51.538;6.728;2023-03-14T04:53:53;11.30;99.90
19085;DHT22;9675;51.538;6.728;2023-03-14T04:56:20;11.20;99.90
19085;DHT22;9675;51.538;6.728;2023-03-14T04:58:49;11.20;99.90
19085;DHT22;9675;51.538;6.728;2023-03-14T05:01:16;11.30;99.90
19085;DHT22;9675;51.538;6.728;2023-03-14T05:03:44;11.20;99.90
19085;DHT22;9675;51.538;6.728;2023-03-14T05:06:11;11.20;99.90
19085;DHT22;9675;51.538;6.728;2023-03-14T05:08:38;11.20;99.90
19085;DHT22;9675;51.538;6.728;2023-03-14T05:11:05;11.20;99.90
19085;DHT22;9675;51.538;6.728;2023-03-14T05:13:32;11.10;99.90
19085;DHT22;9675;51.538;6.728;2023-03-14T05:16:09;11.10;99.90
19085;DHT22;9675;51.538;6.728;2023-03-14T05:18:37;11.10;99.90
19085;DHT22;9675;51.538;6.728;2023-03-14T05:21:05;11.10;99.90
19085;DHT22;9675;51.538;6.728;2023-03-14T05:23:32;11.10;99.90
19085;DHT22;9675;51.538;6.728;2023-03-14T05:25:59;11.00;99.90
19085;DHT22;9675;51.538;6.728;2023-03-14T05:28:26;11.00;99.90
19085;DHT22;9675;51.538;6.728;2023-03-14T05:30:54;11.00;99.90
19085;DHT22;9675;51.538;6.728;2023-03-14T05:33:22;11.00;99.90
19085;DHT22;9675;51.538;6.728;2023-03-14T05:35:49;10.90;99.90
19085;DHT22;9675;51.538;6.728;2023-03-14T05:38:16;10.90;99.90
19085;DHT22;9675;51.538;6.728;2023-03-14T05:40:44;10.90;99.90
19085;DHT22;9675;51.538;6.728;2023-03-14T05:43:12;10.90;99.90
19085;DHT22;9675;51.538;6.728;2023-03-14T05:45:40;10.90;99.90
19085;DHT22;9675;51.538;6.728;2023-03-14T05:48:08;10.90;99.90
19085;DHT22;9675;51.538;6.728;2023-03-14T05:50:37;10.90;99.90
19085;DHT22;9675;51.538;6.728;2023-03-14T05:53:05;10.90;99.90
19085;DHT22;9675;51.538;6.728;2023-03-14T05:55:32;10.80;99.90
19085;DHT22;9675;51.538;6.728;2023-03-14T05:57:59;10.80;99.90
19085;DHT22;9675;51.538;6.728;2023-03-14T06:00:27;10.80;99.90
19085;DHT22;9675;51.538;6.728;2023-03-14T06:02:54;10.80;99.90
19085;DHT22;9675;51.538;6.728;2023-03-14T06:05:21;10.80;99.90
19085;DHT22;9675;51.538;6.728;2023-03-14T06:07:49;10.80;99.90
19085;DHT22;9675;51.538;6.728;2023-03-14T06:10:16;10.70;99.90
19085;DHT22;9675;51.538;6.728;2023-03-14T06:12:43;10.70;99.90
19085;DHT22;9675;51.538;6.728;2023-03-14T06:15:10;10.70;99.90
19085;DHT22;9675;51.538;6.728;2023-03-14T06:17:38;10.70;99.90
19085;DHT22;9675;51.538;6.728;2023-03-14T06:20:06;10.70;99.90
19085;DHT22;9675;51.538;6.728;2023-03-14T06:22:33;10.70;99.90
19085;DHT22;9675;51.538;6.728;2023-03-14T06:25:02;10.70;99.90
19085;DHT22;9675;51.538;6.728;2023-03-14T06:27:30;10.70;99.90
19085;DHT22;9675;51.538;6.728;2023-03-14T06:29:57;10.70;99.90
19085;DHT22;9675;51.538;6.728;2023-03-14T06:32:24;10.70;99.90
19085;DHT22;9675;51.538;6.728;2023-03-14T06:34:51;10.70;99.90
19085;DHT22;9675;51.538;6.728;2023-03-14T06:37:18;10.60;99.90
19085;DHT22;9675;51.538;6.728;2023-03-14T06:39:45;10.70;99.90
19085;DHT22;9675;51.538;6.728;2023-03-14T06:42:14;10.70;99.90
19085;DHT22;9675;51.538;6.728;2023-03-14T06:44:41;10.60;99.90
19085;DHT22;9675;51.538;6.728;2023-03-14T06:47:08;10.70;99.90
19085;DHT22;9675;51.538;6.728;2023-03-14T06:49:35;10.60;99.90
19085;DHT22;9675;51.538;6.728;2023-03-14T06:52:02;10.70;99.90
19085;DHT22;9675;51.538;6.728;2023-03-14T06:54:30;10.70;99.90
19085;DHT22;9675;51.538;6.728;2023-03-14T06:56:57;10.70;99.90
19085;DHT22;9675;51.538;6.728;2023-03-14T06:59:25;10.70;99.90
19085;DHT22;9675;51.538;6.728;2023-03-14T07:01:52;10.70;99.90
19085;DHT22;9675;51.538;6.728;2023-03-14T07:04:19;10.70;99.90
19085;DHT22;9675;51.538;6.728;2023-03-14T07:06:46;10.60;99.90
19085;DHT22;9675;51.538;6.728;2023-03-14T07:09:14;10.70;99.90
19085;DHT22;9675;51.538;6.728;2023-03-14T07:11:42;10.70;99.90
19085;DHT22;9675;51.538;6.728;2023-03-14T07:14:10;10.70;99.90
19085;DHT22;9675;51.538;6.728;2023-03-14T07:16:39;10.70;99.90
19085;DHT22;9675;51.538;6.728;2023-03-14T07:19:06;10.60;99.90
19085;DHT22;9675;51.538;6.728;2023-03-14T07:21:33;10.60;99.90
19085;DHT22;9675;51.538;6.728;2023-03-14T07:24:00;10.60;99.90
19085;DHT22;9675;51.538;6.728;2023-03-14T07:26:27;10.70;99.90
19085;DHT22;9675;51.538;6.728;2023-03-14T07:28:54;10.60;99.90
19085;DHT22;9675;51.538;6.728;2023-03-14T07:31:21;10.60;99.90
19085;DHT22;9675;51.538;6.728;2023-03-14T07:33:49;10.60;99.90
19085;DHT22;9675;51.538;6.728;2023-03-14T07:36:16;10.60;99.90
19085;DHT22;9675;51.538;6.728;2023-03-14T07:38:44;10.60;99.90
19085;DHT22;9675;51.538;6.728;2023-03-14T07:41:11;10.60;99.90
19085;DHT22;9675;51.538;6.728;2023-03-14T07:43:38;10.60;99.90
19085;DHT22;9675;51.538;6.728;2023-03-14T07:46:05;10.60;99.90
19085;DHT22;9675;51.538;6.728;2023-03-14T07:48:33;10.60;99.90
19085;DHT22;9675;51.538;6.728;2023-03-14T07:51:01;10.60;99.90
19085;DHT22;9675;51.538;6.728;2023-03-14T07:53:29;10.60;99.90
19085;DHT22;9675;51.538;6.728;2023-03-14T07:55:55;10.60;99.90
19085;DHT22;9675;51.538;6.728;2023-03-14T07:58:22;10.60;99.90
19085;DHT22;9675;51.538;6.728;2023-03-14T08:00:50;10.70;99.90
19085;DHT22;9675;51.538;6.728;2023-03-14T08:03:18;10.70;99.90
19085;DHT22;9675;51.538;6.728;2023-03-14T08:05:48;10.70;99.90
19085;DHT22;9675;51.538;6.728;2023-03-14T08:08:17;10.70;99.90
19085;DHT22;9675;51.538;6.728;2023-03-14T08:10:44;10.70;99.90
19085;DHT22;9675;51.538;6.728;2023-03-14T08:13:13;10.70;99.90
19085;DHT22;9675;51.538;6.728;2023-03-14T08:15:40;10.70;99.90
19085;DHT22;9675;51.538;6.728;2023-03-14T08:18:07;10.80;99.90
19085;DHT22;9675;51.538;6.728;2023-03-14T08:20:35;10.80;99.90
19085;DHT22;9675;51.538;6.728;2023-03-14T08:23:02;10.80;99.90
19085;DHT22;9675;51.538;6.728;2023-03-14T08:25:31;10.80;99.90
19085;DHT22;9675;51.538;6.728;2023-03-14T08:27:58;10.80;99.90
19085;DHT22;9675;51.538;6.728;2023-03-14T08:30:25;10.80;99.90
19085;DHT22;9675;51.538;6.728;2023-03-14T08:32:52;10.80;99.90
19085;DHT22;9675;51.538;6.728;2023-03-14T08:35:19;10.80;99.90
19085;DHT22;9675;51.538;6.728;2023-03-14T08:37:47;10.80;99.90
19085;DHT22;9675;51.538;6.728;2023-03-14T08:40:14;10.80;99.90
19085;DHT22;9675;51.538;6.728;2023-03-14T08:42:45;10.90;99.90
19085;DHT22;9675;51.538;6.728;2023-03-14T08:45:14;10.90;99.90
19085;DHT22;9675;51.538;6.728;2023-03-14T08:47:42;10.90;99.90
19085;DHT22;9675;51.538;6.728;2023-03-14T08:50:11;10.90;99.90
19085;DHT22;9675;51.538;6.728;2023-03-14T08:52:39;10.90;99.90
19085;DHT22;9675;51.538;6.728;2023-03-14T08:55:08;10.90;99.90
19085;DHT22;9675;51.538;6.728;2023-03-14T08:57:35;10.90;99.90
19085;DHT22;9675;51.538;6.728;2023-03-14T09:00:05;10.90;99.90
19085;DHT22;9675;51.538;6.728;2023-03-14T09:02:36;10.90;99.90
19085;DHT22;9675;51.538;6.728;2023-03-14T09:05:03;11.00;99.90
19085;DHT22;9675;51.538;6.728;2023-03-14T09:07:31;11.00;99.90
19085;DHT22;9675;51.538;6.728;2023-03-14T09:09:58;10.90;99.90
19085;DHT22;9675;51.538;6.728;2023-03-14T09:12:25;11.00;99.90
19085;DHT22;9675;51.538;6.728;2023-03-14T09:14:52;10.90;99.90
19085;DHT22;9675;51.538;6.728;2023-03-14T09:17:20;10.80;99.90
19085;DHT22;9675;51.538;6.728;2023-03-14T09:19:48;10.80;99.90
19085;DHT22;9675;51.538;6.728;2023-03-14T09:22:15;10.80;99.90
19085;DHT22;9675;51.538;6.728;2023-03-14T09:24:42;10.80;99.90
19085;DHT22;9675;51.538;6.728;2023-03-14T09:27:09;10.80;99.90
19085;DHT22;9675;51.538;6.728;2023-03-14T09:29:36;10.70;99.90
19085;DHT22;9675;51.538;6.728;2023-03-14T09:32:03;10.70;99.90
19085;DHT22;9675;51.538;6.728;2023-03-14T09:34:32;10.70;99.90
19085;DHT22;9675;51.538;6.728;2023-03-14T09:37:00;10.70;99.90
19085;DHT22;9675;51.538;6.728;2023-03-14T09:39:27;10.70;99.90
19085;DHT22;9675;51.538;6.728;2023-03-14T09:41:56;10.70;99.90
19085;DHT22;9675;51.538;6.728;2023-03-14T09:44:29;10.60;99.90
19085;DHT22;9675;51.538;6.728;2023-03-14T09:47:01;10.60;99.90
19085;DHT22;9675;51.538;6.728;2023-03-14T09:49:34;10.60;99.90
19085;DHT22;9675;51.538;6.728;2023-03-14T09:52:08;10.60;99.90
19085;DHT22;9675;51.538;6.728;2023-03-14T09:54:43;10.60;99.90
19085;DHT22;9675;51.538;6.728;2023-03-14T09:57:16;10.60;99.90
19085;DHT22;9675;51.538;6.728;2023-03-14T09:59:46;10.50;99.90
19085;DHT22;9675;51.538;6.728;2023-03-14T10:02:17;10.50;99.90
19085;DHT22;9675;51.538;6.728;2023-03-14T10:04:49;10.50;99.90
19085;DHT22;9675;51.538;6.728;2023-03-14T10:07:20;10.50;99.90
19085;DHT22;9675;51.538;6.728;2023-03-14T10:09:55;10.50;99.90
19085;DHT22;9675;51.538;6.728;2023-03-14T10:12:30;10.40;99.90
19085;DHT22;9675;51.538;6.728;2023-03-14T10:15:03;10.50;99.90
19085;DHT22;9675;51.538;6.728;2023-03-14T10:17:39;10.40;99.90
19085;DHT22;9675;51.538;6.728;2023-03-14T10:20:26;10.40;99.90
19085;DHT22;9675;51.538;6.728;2023-03-14T10:22:59;10.40;99.90
19085;DHT22;9675;51.538;6.728;2023-03-14T10:25:29;10.30;99.90
19085;DHT22;9675;51.538;6.728;2023-03-14T10:27:57;10.30;99.90
19085;DHT22;9675;51.538;6.728;2023-03-14T10:30:33;10.20;99.90
19085;DHT22;9675;51.538;6.728;2023-03-14T10:33:11;10.20;99.90
19085;DHT22;9675;51.538;6.728;2023-03-14T10:35:52;10.20;99.90
19085;DHT22;9675;51.538;6.728;2023-03-14T10:38:26;10.10;99.90
19085;DHT22;9675;51.538;6.728;2023-03-14T10:40:55;10.10;99.90
19085;DHT22;9675;51.538;6.728;2023-03-14T10:43:25;10.00;99.90
19085;DHT22;9675;51.538;6.728;2023-03-14T10:45:56;10.00;99.90
19085;DHT22;9675;51.538;6.728;2023-03-14T10:48:30;10.00;99.90
19085;DHT22;9675;51.538;6.728;2023-03-14T10:51:06;9.90;99.90
19085;DHT22;9675;51.538;6.728;2023-03-14T10:53:43;9.90;99.90
19085;DHT22;9675;51.538;6.728;2023-03-14T10:56:12;9.90;99.90
19085;DHT22;9675;51.538;6.728;2023-03-14T10:58:42;9.90;99.90
19085;DHT22;9675;51.538;6.728;2023-03-14T11:01:22;9.90;99.90
19085;DHT22;9675;51.538;6.728;2023-03-14T11:04:10;9.90;99.90
19085;DHT22;9675;51.538;6.728;2023-03-14T11:06:50;9.90;99.90
19085;DHT22;9675;51.538;6.728;2023-03-14T11:09:28;9.90;99.90
19085;DHT22;9675;51.538;6.728;2023-03-14T11:12:03;9.90;99.90
19085;DHT22;9675;51.538;6.728;2023-03-14T11:14:53;9.90;99.90
19085;DHT22;9675;51.538;6.728;2023-03-14T11:17:26;9.90;99.90
19085;DHT22;9675;51.538;6.728;2023-03-14T11:20:16;9.90;99.90
19085;DHT22;9675;51.538;6.728;2023-03-14T11:22:59;9.90;99.90
19085;DHT22;9675;51.538;6.728;2023-03-14T11:25:40;9.90;99.90
19085;DHT22;9675;51.538;6.728;2023-03-14T11:28:18;9.90;99.90
19085;DHT22;9675;51.538;6.728;2023-03-14T11:30:54;9.90;99.90
19085;DHT22;9675;51.538;6.728;2023-03-14T11:33:27;9.80;99.90
19085;DHT22;9675;51.538;6.728;2023-03-14T11:36:04;9.90;99.90
19085;DHT22;9675;51.538;6.728;2023-03-14T11:38:38;9.90;99.90
19085;DHT22;9675;51.538;6.728;2023-03-14T11:41:14;9.90;99.90
19085;DHT22;9675;51.538;6.728;2023-03-14T11:43:47;9.90;99.90
19085;DHT22;9675;51.538;6.728;2023-03-14T11:46:18;9.80;99.90
19085;DHT22;9675;51.538;6.728;2023-03-14T11:48:58;9.90;99.90
19085;DHT22;9675;51.538;6.728;2023-03-14T11:51:32;9.80;99.90
19085;DHT22;9675;51.538;6.728;2023-03-14T11:54:12;9.80;99.90
19085;DHT22;9675;51.538;6.728;2023-03-14T11:56:47;9.80;99.90
19085;DHT22;9675;51.538;6.728;2023-03-14T11:59:23;9.90;99.90
19085;DHT22;9675;51.538;6.728;2023-03-14T12:02:01;9.90;99.90
19085;DHT22;9675;51.538;6.728;2023-03-14T12:04:42;9.90;99.90
19085;DHT22;9675;51.538;6.728;2023-03-14T12:07:20;9.80;99.90
19085;DHT22;9675;51.538;6.728;2023-03-14T12:09:53;9.80;99.90
19085;DHT22;9675;51.538;6.728;2023-03-14T12:12:23;9.90;99.90
19085;DHT22;9675;51.538;6.728;2023-03-14T12:14:55;9.90;99.90
19085;DHT22;9675;51.538;6.728;2023-03-14T12:17:26;9.90;99.90
19085;DHT22;9675;51.538;6.728;2023-03-14T12:20:04;10.00;99.90
19085;DHT22;9675;51.538;6.728;2023-03-14T12:22:43;10.00;99.90
19085;DHT22;9675;51.538;6.728;2023-03-14T12:25:18;9.90;99.90
19085;DHT22;9675;51.538;6.728;2023-03-14T12:28:04;9.90;99.90
19085;DHT22;9675;51.538;6.728;2023-03-14T12:30:43;9.90;99.90
19085;DHT22;9675;51.538;6.728;2023-03-14T12:36:18;9.90;99.90
19085;DHT22;9675;51.538;6.728;2023-03-14T12:39:20;9.80;99.90
19085;DHT22;9675;51.538;6.728;2023-03-14T12:42:04;9.90;99.90
19085;DHT22;9675;51.538;6.728;2023-03-14T12:44:45;9.80;99.90
19085;DHT22;9675;51.538;6.728;2023-03-14T12:50:24;9.80;99.90
19085;DHT22;9675;51.538;6.728;2023-03-14T12:53:13;9.80;99.90
19085;DHT22;9675;51.538;6.728;2023-03-14T12:56:09;9.80;99.90
19085;DHT22;9675;51.538;6.728;2023-03-14T12:58:58;9.80;99.90
19085;DHT22;9675;51.538;6.728;2023-03-14T13:01:35;9.90;99.90
19085;DHT22;9675;51.538;6.728;2023-03-14T13:04:07;9.90;99.90
19085;DHT22;9675;51.538;6.728;2023-03-14T13:06:49;9.90;99.90
19085;DHT22;9675;51.538;6.728;2023-03-14T13:09:53;9.80;99.90
19085;DHT22;9675;51.538;6.728;2023-03-14T13:12:28;9.80;99.90
19085;DHT22;9675;51.538;6.728;2023-03-14T13:15:00;9.70;99.90
19085;DHT22;9675;51.538;6.728;2023-03-14T13:17:40;9.70;99.90
19085;DHT22;9675;51.538;6.728;2023-03-14T13:20:12;9.70;99.90
19085;DHT22;9675;51.538;6.728;2023-03-14T13:22:47;9.80;99.90
19085;DHT22;9675;51.538;6.728;2023-03-14T13:25:16;9.80;99.90
19085;DHT22;9675;51.538;6.728;2023-03-14T13:27:47;9.80;99.90
19085;DHT22;9675;51.538;6.728;2023-03-14T13:30:21;9.80;99.90
19085;DHT22;9675;51.538;6.728;2023-03-14T13:32:51;9.80;99.90
19085;DHT22;9675;51.538;6.728;2023-03-14T13:35:25;9.80;99.90
19085;DHT22;9675;51.538;6.728;2023-03-14T13:37:56;9.80;99.90
19085;DHT22;9675;51.538;6.728;2023-03-14T13:40:29;9.90;99.90
19085;DHT22;9675;51.538;6.728;2023-03-14T13:43:20;9.90;99.90
19085;DHT22;9675;51.538;6.728;2023-03-14T13:45:56;9.90;99.90
19085;DHT22;9675;51.538;6.728;2023-03-14T13:48:30;9.90;99.90
19085;DHT22;9675;51.538;6.728;2023-03-14T13:51:02;9.90;99.90
19085;DHT22;9675;51.538;6.728;2023-03-14T13:53:32;9.90;99.90
19085;DHT22;9675;51.538;6.728;2023-03-14T13:56:10;10.00;99.90
19085;DHT22;9675;51.538;6.728;2023-03-14T13:58:39;10.00;99.90
19085;DHT22;9675;51.538;6.728;2023-03-14T14:01:14;10.10;99.90
19085;DHT22;9675;51.538;6.728;2023-03-14T14:03:45;10.10;99.90
19085;DHT22;9675;51.538;6.728;2023-03-14T14:06:26;10.10;99.90
19085;DHT22;9675;51.538;6.728;2023-03-14T14:08:57;10.20;99.90
19085;DHT22;9675;51.538;6.728;2023-03-14T14:11:37;10.20;99.90
19085;DHT22;9675;51.538;6.728;2023-03-14T14:14:12;10.20;99.90
19085;DHT22;9675;51.538;6.728;2023-03-14T14:16:46;10.20;99.90
19085;DHT22;9675;51.538;6.728;2023-03-14T14:19:15;10.30;99.90
19085;DHT22;9675;51.538;6.728;2023-03-14T14:21:45;10.30;99.90
19085;DHT22;9675;51.538;6.728;2023-03-14T14:24:14;10.30;99.90
19085;DHT22;9675;51.538;6.728;2023-03-14T14:26:47;10.30;99.90
19085;DHT22;9675;51.538;6.728;2023-03-14T14:29:25;10.40;99.90
19085;DHT22;9675;51.538;6.728;2023-03-14T14:32:12;10.40;99.90
19085;DHT22;9675;51.538;6.728;2023-03-14T14:34:42;10.50;99.90
19085;DHT22;9675;51.538;6.728;2023-03-14T14:37:19;10.50;99.90
19085;DHT22;9675;51.538;6.728;2023-03-14T14:39:49;10.50;99.90
19085;DHT22;9675;51.538;6.728;2023-03-14T14:42:20;10.60;99.90
19085;DHT22;9675;51.538;6.728;2023-03-14T14:44:49;10.60;99.90
19085;DHT22;9675;51.538;6.728;2023-03-14T14:47:21;10.60;99.90
19085;DHT22;9675;51.538;6.728;2023-03-14T14:49:51;10.60;99.90
19085;DHT22;9675;51.538;6.728;2023-03-14T14:52:21;10.70;99.90
19085;DHT22;9675;51.538;6.728;2023-03-14T14:54:59;10.70;99.90
19085;DHT22;9675;51.538;6.728;2023-03-14T14:57:29;10.70;99.90
19085;DHT22;9675;51.538;6.728;2023-03-14T15:00:04;10.70;99.90
19085;DHT22;9675;51.538;6.728;2023-03-14T15:02:39;10.80;99.90
19085;DHT22;9675;51.538;6.728;2023-03-14T15:05:13;10.80;99.90
19085;DHT22;9675;51.538;6.728;2023-03-14T15:07:41;10.80;99.90
19085;DHT22;9675;51.538;6.728;2023-03-14T15:10:11;10.80;99.90
19085;DHT22;9675;51.538;6.728;2023-03-14T15:12:39;10.90;99.90
19085;DHT22;9675;51.538;6.728;2023-03-14T15:15:07;10.80;99.90
19085;DHT22;9675;51.538;6.728;2023-03-14T15:17:37;10.90;99.90
19085;DHT22;9675;51.538;6.728;2023-03-14T15:20:06;10.90;99.90
19085;DHT22;9675;51.538;6.728;2023-03-14T15:22:38;10.90;99.90
19085;DHT22;9675;51.538;6.728;2023-03-14T15:25:06;10.90;99.90
19085;DHT22;9675;51.538;6.728;2023-03-14T15:27:35;10.90;99.90
19085;DHT22;9675;51.538;6.728;2023-03-14T15:30:10;10.90;99.90
19085;DHT22;9675;51.538;6.728;2023-03-14T15:32:40;10.90;99.90
19085;DHT22;9675;51.538;6.728;2023-03-14T15:35:08;10.90;99.90
19085;DHT22;9675;51.538;6.728;2023-03-14T15:37:36;10.80;99.90
19085;DHT22;9675;51.538;6.728;2023-03-14T15:40:04;10.80;99.90
19085;DHT22;9675;51.538;6.728;2023-03-14T15:42:38;10.80;99.90
19085;DHT22;9675;51.538;6.728;2023-03-14T15:45:06;10.80;99.90
19085;DHT22;9675;51.538;6.728;2023-03-14T15:47:34;10.80;99.90
19085;DHT22;9675;51.538;6.728;2023-03-14T15:50:02;10.80;99.90
19085;DHT22;9675;51.538;6.728;2023-03-14T15:52:30;10.80;99.90
19085;DHT22;9675;51.538;6.728;2023-03-14T15:54:57;10.80;99.90
19085;DHT22;9675;51.538;6.728;2023-03-14T15:57:24;10.80;99.90
19085;DHT22;9675;51.538;6.728;2023-03-14T15:59:51;10.70;99.90
19085;DHT22;9675;51.538;6.728;2023-03-14T16:02:18;10.70;99.90
19085;DHT22;9675;51.538;6.728;2023-03-14T16:04:45;10.70;99.90
19085;DHT22;9675;51.538;6.728;2023-03-14T16:07:13;10.70;99.90
19085;DHT22;9675;51.538;6.728;2023-03-14T16:09:41;10.70;99.90
19085;DHT22;9675;51.538;6.728;2023-03-14T16:12:08;10.70;99.90
19085;DHT22;9675;51.538;6.728;2023-03-14T16:14:35;10.60;99.90
19085;DHT22;9675;51.538;6.728;2023-03-14T16:17:07;10.60;99.90